Widefield, Colorado
Current Conditions -  °F | °C
As of 5:54 PM on Saturday 22 Nov 2014 (Local Time) from KCOS Reporting Station
Overcast Overcast  
Wind Chill: 56°   Ceiling: 20000
Heat Index: 56°   Visibility: 10mi
Dew Point: 15°   Wind: 20mph
Humidity: 20%   Direction: 320°NW
Pressure: 29.62"   Gusts: 28mph
Location:  38.7481°N, 104.708°W
Report Text: KCOS 230054Z 32017G24KT 10SM FEW090 FEW180 BKN200 OVC250 13/M09 A2962 RMK AO2 SLP018 T01331094
Loading
Personal Weather Stations






























Interactive Weather Map New forecast layout! Learn more

10-Day Weather Forecast

Advertisements
Track Severe Weather on mobile